sensor_id;sensor_type;location;lat;lon;timestamp;P1;durP1;ratioP1;P2;durP2;ratioP2
82806;SDS011;72563;44.816;20.484;2023-11-22T00:00:11;8.38;;;3.90;;
82806;SDS011;72563;44.816;20.484;2023-11-22T00:02:38;8.48;;;4.15;;
82806;SDS011;72563;44.816;20.484;2023-11-22T00:05:04;7.53;;;3.50;;
82806;SDS011;72563;44.816;20.484;2023-11-22T00:07:31;9.15;;;4.07;;
82806;SDS011;72563;44.816;20.484;2023-11-22T00:09:58;8.77;;;4.10;;
82806;SDS011;72563;44.816;20.484;2023-11-22T00:12:24;9.35;;;4.38;;
82806;SDS011;72563;44.816;20.484;2023-11-22T00:14:50;9.63;;;4.72;;
82806;SDS011;72563;44.816;20.484;2023-11-22T00:17:18;10.20;;;5.30;;
82806;SDS011;72563;44.816;20.484;2023-11-22T00:19:44;8.90;;;4.68;;
82806;SDS011;72563;44.816;20.484;2023-11-22T00:22:10;8.70;;;4.65;;
82806;SDS011;72563;44.816;20.484;2023-11-22T00:24:39;8.50;;;4.38;;
82806;SDS011;72563;44.816;20.484;2023-11-22T00:27:06;8.20;;;4.60;;
82806;SDS011;72563;44.816;20.484;2023-11-22T00:29:32;8.75;;;4.50;;
82806;SDS011;72563;44.816;20.484;2023-11-22T00:31:57;10.15;;;5.50;;
82806;SDS011;72563;44.816;20.484;2023-11-22T00:34:25;7.70;;;4.18;;
82806;SDS011;72563;44.816;20.484;2023-11-22T00:36:51;12.55;;;4.50;;
82806;SDS011;72563;44.816;20.484;2023-11-22T00:39:17;8.43;;;4.65;;
82806;SDS011;72563;44.816;20.484;2023-11-22T00:41:42;8.98;;;4.18;;
82806;SDS011;72563;44.816;20.484;2023-11-22T00:44:09;8.68;;;4.63;;
82806;SDS011;72563;44.816;20.484;2023-11-22T00:46:35;8.98;;;4.78;;
82806;SDS011;72563;44.816;20.484;2023-11-22T00:49:02;10.98;;;5.45;;
82806;SDS011;72563;44.816;20.484;2023-11-22T00:51:29;10.18;;;5.07;;
82806;SDS011;72563;44.816;20.484;2023-11-22T00:53:56;10.68;;;5.80;;
82806;SDS011;72563;44.816;20.484;2023-11-22T00:56:22;10.32;;;5.38;;
82806;SDS011;72563;44.816;20.484;2023-11-22T00:58:49;10.90;;;5.68;;
82806;SDS011;72563;44.816;20.484;2023-11-22T01:01:16;10.15;;;5.15;;
82806;SDS011;72563;44.816;20.484;2023-11-22T01:03:43;10.85;;;5.45;;
82806;SDS011;72563;44.816;20.484;2023-11-22T01:06:08;9.90;;;5.05;;
82806;SDS011;72563;44.816;20.484;2023-11-22T01:08:34;10.68;;;5.72;;
82806;SDS011;72563;44.816;20.484;2023-11-22T01:11:00;9.77;;;5.90;;
82806;SDS011;72563;44.816;20.484;2023-11-22T01:13:28;11.55;;;6.97;;
82806;SDS011;72563;44.816;20.484;2023-11-22T01:15:55;12.30;;;7.35;;
82806;SDS011;72563;44.816;20.484;2023-11-22T01:18:21;13.63;;;7.40;;
82806;SDS011;72563;44.816;20.484;2023-11-22T01:20:46;14.05;;;7.80;;
82806;SDS011;72563;44.816;20.484;2023-11-22T01:23:12;12.98;;;7.63;;
82806;SDS011;72563;44.816;20.484;2023-11-22T01:25:38;14.05;;;9.23;;
82806;SDS011;72563;44.816;20.484;2023-11-22T01:28:05;13.80;;;8.23;;
82806;SDS011;72563;44.816;20.484;2023-11-22T01:30:32;16.38;;;9.30;;
82806;SDS011;72563;44.816;20.484;2023-11-22T01:32:59;14.57;;;8.70;;
82806;SDS011;72563;44.816;20.484;2023-11-22T01:35:24;16.75;;;9.38;;
82806;SDS011;72563;44.816;20.484;2023-11-22T01:37:50;15.38;;;8.65;;
82806;SDS011;72563;44.816;20.484;2023-11-22T01:40:16;14.98;;;8.57;;
82806;SDS011;72563;44.816;20.484;2023-11-22T01:42:41;16.17;;;8.73;;
82806;SDS011;72563;44.816;20.484;2023-11-22T01:45:07;15.27;;;8.77;;
82806;SDS011;72563;44.816;20.484;2023-11-22T01:47:35;15.57;;;8.35;;
82806;SDS011;72563;44.816;20.484;2023-11-22T01:50:02;15.40;;;9.27;;
82806;SDS011;72563;44.816;20.484;2023-11-22T01:52:31;14.20;;;8.57;;
82806;SDS011;72563;44.816;20.484;2023-11-22T01:54:57;13.50;;;7.65;;
82806;SDS011;72563;44.816;20.484;2023-11-22T01:57:23;12.35;;;7.65;;
82806;SDS011;72563;44.816;20.484;2023-11-22T01:59:49;15.13;;;8.68;;
82806;SDS011;72563;44.816;20.484;2023-11-22T02:02:14;13.27;;;7.70;;
82806;SDS011;72563;44.816;20.484;2023-11-22T02:04:40;12.70;;;7.40;;
82806;SDS011;72563;44.816;20.484;2023-11-22T02:07:05;17.00;;;8.82;;
82806;SDS011;72563;44.816;20.484;2023-11-22T02:09:31;13.50;;;7.80;;
82806;SDS011;72563;44.816;20.484;2023-11-22T02:11:56;13.20;;;7.43;;
82806;SDS011;72563;44.816;20.484;2023-11-22T02:14:23;12.95;;;7.50;;
82806;SDS011;72563;44.816;20.484;2023-11-22T02:16:49;14.18;;;7.70;;
82806;SDS011;72563;44.816;20.484;2023-11-22T02:19:16;11.80;;;6.75;;
82806;SDS011;72563;44.816;20.484;2023-11-22T02:21:43;12.77;;;6.97;;
82806;SDS011;72563;44.816;20.484;2023-11-22T02:24:09;11.68;;;6.35;;
82806;SDS011;72563;44.816;20.484;2023-11-22T02:26:35;11.95;;;6.00;;
82806;SDS011;72563;44.816;20.484;2023-11-22T02:29:01;11.60;;;5.93;;
82806;SDS011;72563;44.816;20.484;2023-11-22T02:31:29;12.30;;;6.28;;
82806;SDS011;72563;44.816;20.484;2023-11-22T02:33:55;12.43;;;6.53;;
82806;SDS011;72563;44.816;20.484;2023-11-22T02:36:20;11.93;;;6.28;;
82806;SDS011;72563;44.816;20.484;2023-11-22T02:38:48;9.65;;;5.85;;
82806;SDS011;72563;44.816;20.484;2023-11-22T02:41:13;12.27;;;6.30;;
82806;SDS011;72563;44.816;20.484;2023-11-22T02:43:39;10.45;;;5.30;;
82806;SDS011;72563;44.816;20.484;2023-11-22T02:46:06;11.93;;;5.38;;
82806;SDS011;72563;44.816;20.484;2023-11-22T02:48:33;10.13;;;5.55;;
82806;SDS011;72563;44.816;20.484;2023-11-22T02:50:59;8.02;;;4.65;;
82806;SDS011;72563;44.816;20.484;2023-11-22T02:53:24;9.82;;;4.90;;
82806;SDS011;72563;44.816;20.484;2023-11-22T02:55:50;9.23;;;5.05;;
82806;SDS011;72563;44.816;20.484;2023-11-22T02:58:15;9.02;;;5.70;;
82806;SDS011;72563;44.816;20.484;2023-11-22T03:00:42;10.35;;;5.05;;
82806;SDS011;72563;44.816;20.484;2023-11-22T03:03:07;10.05;;;5.07;;
82806;SDS011;72563;44.816;20.484;2023-11-22T03:05:35;9.93;;;4.80;;
82806;SDS011;72563;44.816;20.484;2023-11-22T03:08:03;10.60;;;5.43;;
82806;SDS011;72563;44.816;20.484;2023-11-22T03:10:30;9.55;;;4.93;;
82806;SDS011;72563;44.816;20.484;2023-11-22T03:12:56;9.02;;;4.80;;
82806;SDS011;72563;44.816;20.484;2023-11-22T03:15:22;8.43;;;4.88;;
82806;SDS011;72563;44.816;20.484;2023-11-22T03:17:47;10.30;;;4.97;;
82806;SDS011;72563;44.816;20.484;2023-11-22T03:20:13;8.95;;;5.13;;
82806;SDS011;72563;44.816;20.484;2023-11-22T03:22:40;9.63;;;5.75;;
82806;SDS011;72563;44.816;20.484;2023-11-22T03:25:09;12.07;;;6.60;;
82806;SDS011;72563;44.816;20.484;2023-11-22T03:27:35;13.68;;;7.85;;
82806;SDS011;72563;44.816;20.484;2023-11-22T03:30:01;15.80;;;9.63;;
82806;SDS011;72563;44.816;20.484;2023-11-22T03:32:27;17.33;;;10.32;;
82806;SDS011;72563;44.816;20.484;2023-11-22T03:34:55;17.52;;;10.45;;
82806;SDS011;72563;44.816;20.484;2023-11-22T03:37:23;21.90;;;10.82;;
82806;SDS011;72563;44.816;20.484;2023-11-22T03:39:49;19.00;;;11.13;;
82806;SDS011;72563;44.816;20.484;2023-11-22T03:42:15;22.05;;;13.25;;
82806;SDS011;72563;44.816;20.484;2023-11-22T03:44:44;20.75;;;12.95;;
82806;SDS011;72563;44.816;20.484;2023-11-22T03:47:14;20.25;;;13.50;;
82806;SDS011;72563;44.816;20.484;2023-11-22T03:49:40;22.13;;;13.90;;
82806;SDS011;72563;44.816;20.484;2023-11-22T03:52:06;19.73;;;12.65;;
82806;SDS011;72563;44.816;20.484;2023-11-22T03:54:33;19.92;;;11.88;;
82806;SDS011;72563;44.816;20.484;2023-11-22T03:56:59;18.70;;;12.32;;
82806;SDS011;72563;44.816;20.484;2023-11-22T03:59:24;22.45;;;12.77;;
82806;SDS011;72563;44.816;20.484;2023-11-22T04:01:50;21.50;;;12.25;;
82806;SDS011;72563;44.816;20.484;2023-11-22T04:04:19;21.38;;;12.63;;
82806;SDS011;72563;44.816;20.484;2023-11-22T04:06:53;22.40;;;12.27;;
82806;SDS011;72563;44.816;20.484;2023-11-22T04:09:18;25.25;;;13.15;;
82806;SDS011;72563;44.816;20.484;2023-11-22T04:11:45;21.85;;;13.10;;
82806;SDS011;72563;44.816;20.484;2023-11-22T04:14:12;18.20;;;11.25;;
82806;SDS011;72563;44.816;20.484;2023-11-22T04:16:38;20.40;;;12.38;;
82806;SDS011;72563;44.816;20.484;2023-11-22T04:19:03;20.15;;;11.55;;
82806;SDS011;72563;44.816;20.484;2023-11-22T04:21:29;21.20;;;13.57;;
82806;SDS011;72563;44.816;20.484;2023-11-22T04:23:54;20.20;;;13.00;;
82806;SDS011;72563;44.816;20.484;2023-11-22T04:26:20;20.75;;;12.73;;
82806;SDS011;72563;44.816;20.484;2023-11-22T04:28:47;20.75;;;12.45;;
82806;SDS011;72563;44.816;20.484;2023-11-22T04:31:12;20.67;;;13.65;;
82806;SDS011;72563;44.816;20.484;2023-11-22T04:33:38;22.85;;;12.50;;
82806;SDS011;72563;44.816;20.484;2023-11-22T04:36:05;21.88;;;12.68;;
82806;SDS011;72563;44.816;20.484;2023-11-22T04:38:31;18.40;;;12.25;;
82806;SDS011;72563;44.816;20.484;2023-11-22T04:40:59;24.70;;;13.10;;
82806;SDS011;72563;44.816;20.484;2023-11-22T04:43:24;21.83;;;13.48;;
82806;SDS011;72563;44.816;20.484;2023-11-22T04:45:50;25.73;;;13.27;;
82806;SDS011;72563;44.816;20.484;2023-11-22T04:48:15;21.98;;;13.25;;
82806;SDS011;72563;44.816;20.484;2023-11-22T04:50:41;24.17;;;13.63;;
82806;SDS011;72563;44.816;20.484;2023-11-22T04:53:08;22.73;;;13.30;;
82806;SDS011;72563;44.816;20.484;2023-11-22T04:55:34;20.70;;;12.25;;
82806;SDS011;72563;44.816;20.484;2023-11-22T04:58:00;21.52;;;12.70;;
82806;SDS011;72563;44.816;20.484;2023-11-22T05:00:26;20.23;;;12.43;;
82806;SDS011;72563;44.816;20.484;2023-11-22T05:02:52;20.63;;;13.15;;
82806;SDS011;72563;44.816;20.484;2023-11-22T05:05:19;22.98;;;12.90;;
82806;SDS011;72563;44.816;20.484;2023-11-22T05:07:45;22.15;;;13.35;;
82806;SDS011;72563;44.816;20.484;2023-11-22T05:10:11;22.67;;;13.20;;
82806;SDS011;72563;44.816;20.484;2023-11-22T05:12:37;23.13;;;13.35;;
82806;SDS011;72563;44.816;20.484;2023-11-22T05:15:03;22.83;;;13.52;;
82806;SDS011;72563;44.816;20.484;2023-11-22T05:17:29;22.95;;;14.32;;
82806;SDS011;72563;44.816;20.484;2023-11-22T05:19:55;21.05;;;13.15;;
82806;SDS011;72563;44.816;20.484;2023-11-22T05:22:21;24.02;;;13.52;;
82806;SDS011;72563;44.816;20.484;2023-11-22T05:24:47;21.65;;;13.05;;
82806;SDS011;72563;44.816;20.484;2023-11-22T05:27:13;21.60;;;12.63;;
82806;SDS011;72563;44.816;20.484;2023-11-22T05:29:39;22.13;;;13.40;;
82806;SDS011;72563;44.816;20.484;2023-11-22T05:32:05;21.10;;;13.10;;
82806;SDS011;72563;44.816;20.484;2023-11-22T05:34:31;21.55;;;12.80;;
82806;SDS011;72563;44.816;20.484;2023-11-22T05:36:58;24.95;;;12.95;;
82806;SDS011;72563;44.816;20.484;2023-11-22T05:39:23;22.05;;;12.88;;
82806;SDS011;72563;44.816;20.484;2023-11-22T05:41:52;21.05;;;12.23;;
82806;SDS011;72563;44.816;20.484;2023-11-22T05:44:18;21.40;;;12.93;;
82806;SDS011;72563;44.816;20.484;2023-11-22T05:46:44;20.42;;;12.73;;
82806;SDS011;72563;44.816;20.484;2023-11-22T05:49:09;21.88;;;12.90;;
82806;SDS011;72563;44.816;20.484;2023-11-22T05:51:37;22.23;;;13.23;;
82806;SDS011;72563;44.816;20.484;2023-11-22T05:54:03;24.88;;;13.48;;
82806;SDS011;72563;44.816;20.484;2023-11-22T05:56:29;24.05;;;14.05;;
82806;SDS011;72563;44.816;20.484;2023-11-22T05:58:55;25.85;;;13.75;;
82806;SDS011;72563;44.816;20.484;2023-11-22T06:01:20;23.38;;;13.32;;
82806;SDS011;72563;44.816;20.484;2023-11-22T06:03:47;23.33;;;14.45;;
82806;SDS011;72563;44.816;20.484;2023-11-22T06:06:13;24.90;;;13.27;;
82806;SDS011;72563;44.816;20.484;2023-11-22T06:08:39;23.67;;;13.32;;
82806;SDS011;72563;44.816;20.484;2023-11-22T06:11:05;28.17;;;14.85;;
82806;SDS011;72563;44.816;20.484;2023-11-22T06:13:30;29.70;;;15.30;;
82806;SDS011;72563;44.816;20.484;2023-11-22T06:15:56;30.77;;;15.38;;
82806;SDS011;72563;44.816;20.484;2023-11-22T06:18:22;26.17;;;14.95;;
82806;SDS011;72563;44.816;20.484;2023-11-22T06:20:54;26.15;;;14.57;;
82806;SDS011;72563;44.816;20.484;2023-11-22T06:23:21;26.92;;;14.98;;
82806;SDS011;72563;44.816;20.484;2023-11-22T06:25:47;30.40;;;15.90;;
82806;SDS011;72563;44.816;20.484;2023-11-22T06:28:13;27.08;;;16.05;;
82806;SDS011;72563;44.816;20.484;2023-11-22T06:30:39;31.02;;;15.38;;
82806;SDS011;72563;44.816;20.484;2023-11-22T06:33:04;26.50;;;14.32;;
82806;SDS011;72563;44.816;20.484;2023-11-22T06:35:30;26.90;;;15.10;;
82806;SDS011;72563;44.816;20.484;2023-11-22T06:37:56;28.83;;;16.30;;
82806;SDS011;72563;44.816;20.484;2023-11-22T06:40:22;29.27;;;17.20;;
82806;SDS011;72563;44.816;20.484;2023-11-22T06:42:48;27.23;;;16.15;;
82806;SDS011;72563;44.816;20.484;2023-11-22T06:45:14;32.65;;;16.48;;
82806;SDS011;72563;44.816;20.484;2023-11-22T06:47:40;28.20;;;15.20;;
82806;SDS011;72563;44.816;20.484;2023-11-22T06:50:06;28.13;;;14.73;;
82806;SDS011;72563;44.816;20.484;2023-11-22T06:52:40;27.10;;;15.43;;
82806;SDS011;72563;44.816;20.484;2023-11-22T06:55:07;27.52;;;15.13;;
82806;SDS011;72563;44.816;20.484;2023-11-22T06:57:37;26.48;;;14.68;;
82806;SDS011;72563;44.816;20.484;2023-11-22T07:00:03;27.08;;;15.00;;
82806;SDS011;72563;44.816;20.484;2023-11-22T07:02:35;27.67;;;14.95;;
82806;SDS011;72563;44.816;20.484;2023-11-22T07:05:04;30.40;;;16.70;;
82806;SDS011;72563;44.816;20.484;2023-11-22T07:10:01;30.02;;;16.05;;
82806;SDS011;72563;44.816;20.484;2023-11-22T07:12:27;29.65;;;16.08;;
82806;SDS011;72563;44.816;20.484;2023-11-22T07:14:54;29.27;;;16.48;;
82806;SDS011;72563;44.816;20.484;2023-11-22T07:17:19;32.92;;;16.52;;
82806;SDS011;72563;44.816;20.484;2023-11-22T07:19:47;33.50;;;17.67;;
82806;SDS011;72563;44.816;20.484;2023-11-22T07:22:16;32.78;;;17.85;;
82806;SDS011;72563;44.816;20.484;2023-11-22T07:24:43;31.20;;;16.77;;
82806;SDS011;72563;44.816;20.484;2023-11-22T07:27:10;34.58;;;17.65;;
82806;SDS011;72563;44.816;20.484;2023-11-22T07:32:03;36.05;;;17.80;;
82806;SDS011;72563;44.816;20.484;2023-11-22T07:34:30;33.55;;;17.67;;
82806;SDS011;72563;44.816;20.484;2023-11-22T07:36:55;35.08;;;17.00;;
82806;SDS011;72563;44.816;20.484;2023-11-22T07:39:21;33.53;;;16.63;;
82806;SDS011;72563;44.816;20.484;2023-11-22T07:41:52;35.50;;;17.30;;
82806;SDS011;72563;44.816;20.484;2023-11-22T07:44:17;38.08;;;19.00;;
82806;SDS011;72563;44.816;20.484;2023-11-22T07:46:43;42.50;;;19.55;;
82806;SDS011;72563;44.816;20.484;2023-11-22T07:49:09;37.28;;;17.90;;
82806;SDS011;72563;44.816;20.484;2023-11-22T07:51:35;35.33;;;17.73;;
82806;SDS011;72563;44.816;20.484;2023-11-22T07:54:02;35.35;;;18.17;;
82806;SDS011;72563;44.816;20.484;2023-11-22T07:56:28;36.35;;;18.55;;
82806;SDS011;72563;44.816;20.484;2023-11-22T07:58:54;37.55;;;19.45;;
82806;SDS011;72563;44.816;20.484;2023-11-22T08:01:20;47.58;;;20.52;;
82806;SDS011;72563;44.816;20.484;2023-11-22T08:03:47;41.85;;;20.35;;
82806;SDS011;72563;44.816;20.484;2023-11-22T08:06:12;40.63;;;19.48;;
82806;SDS011;72563;44.816;20.484;2023-11-22T08:08:38;43.03;;;20.23;;
82806;SDS011;72563;44.816;20.484;2023-11-22T08:11:05;45.22;;;20.55;;
82806;SDS011;72563;44.816;20.484;2023-11-22T08:13:40;46.17;;;22.70;;
82806;SDS011;72563;44.816;20.484;2023-11-22T08:16:09;41.47;;;22.83;;
82806;SDS011;72563;44.816;20.484;2023-11-22T08:18:34;38.35;;;19.20;;
82806;SDS011;72563;44.816;20.484;2023-11-22T08:21:00;35.65;;;19.08;;
82806;SDS011;72563;44.816;20.484;2023-11-22T08:23:26;39.30;;;19.50;;
82806;SDS011;72563;44.816;20.484;2023-11-22T08:25:52;37.22;;;18.38;;
82806;SDS011;72563;44.816;20.484;2023-11-22T08:28:18;36.50;;;18.88;;
82806;SDS011;72563;44.816;20.484;2023-11-22T08:30:44;35.90;;;17.95;;
82806;SDS011;72563;44.816;20.484;2023-11-22T08:33:09;35.33;;;18.73;;
82806;SDS011;72563;44.816;20.484;2023-11-22T08:35:35;37.40;;;18.13;;
82806;SDS011;72563;44.816;20.484;2023-11-22T08:38:01;31.92;;;16.98;;
82806;SDS011;72563;44.816;20.484;2023-11-22T08:40:28;33.55;;;16.73;;
82806;SDS011;72563;44.816;20.484;2023-11-22T08:42:54;31.17;;;17.17;;
82806;SDS011;72563;44.816;20.484;2023-11-22T08:45:20;36.53;;;17.80;;
82806;SDS011;72563;44.816;20.484;2023-11-22T08:47:46;33.35;;;17.65;;
82806;SDS011;72563;44.816;20.484;2023-11-22T08:50:14;33.70;;;16.33;;
82806;SDS011;72563;44.816;20.484;2023-11-22T08:52:40;32.13;;;17.25;;
82806;SDS011;72563;44.816;20.484;2023-11-22T08:55:11;30.77;;;16.75;;
82806;SDS011;72563;44.816;20.484;2023-11-22T08:57:38;33.00;;;17.08;;
82806;SDS011;72563;44.816;20.484;2023-11-22T09:00:06;35.38;;;17.83;;
82806;SDS011;72563;44.816;20.484;2023-11-22T09:02:35;35.67;;;16.83;;
82806;SDS011;72563;44.816;20.484;2023-11-22T09:05:02;33.88;;;17.05;;
82806;SDS011;72563;44.816;20.484;2023-11-22T09:07:34;30.48;;;17.10;;
82806;SDS011;72563;44.816;20.484;2023-11-22T09:10:01;30.13;;;15.45;;
82806;SDS011;72563;44.816;20.484;2023-11-22T09:12:35;32.10;;;17.40;;
82806;SDS011;72563;44.816;20.484;2023-11-22T09:15:09;27.55;;;14.75;;
82806;SDS011;72563;44.816;20.484;2023-11-22T09:17:37;30.15;;;14.80;;
82806;SDS011;72563;44.816;20.484;2023-11-22T09:20:17;29.75;;;14.70;;
82806;SDS011;72563;44.816;20.484;2023-11-22T09:22:48;31.40;;;15.48;;
82806;SDS011;72563;44.816;20.484;2023-11-22T09:25:25;30.92;;;14.65;;
82806;SDS011;72563;44.816;20.484;2023-11-22T09:30:25;30.02;;;14.25;;
82806;SDS011;72563;44.816;20.484;2023-11-22T09:33:00;31.10;;;15.05;;
82806;SDS011;72563;44.816;20.484;2023-11-22T09:35:27;29.60;;;14.80;;
82806;SDS011;72563;44.816;20.484;2023-11-22T09:37:59;29.38;;;15.43;;
82806;SDS011;72563;44.816;20.484;2023-11-22T09:40:28;30.08;;;15.15;;
82806;SDS011;72563;44.816;20.484;2023-11-22T09:42:57;29.13;;;14.27;;
82806;SDS011;72563;44.816;20.484;2023-11-22T09:45:27;31.73;;;15.23;;
82806;SDS011;72563;44.816;20.484;2023-11-22T09:47:55;32.70;;;17.38;;
82806;SDS011;72563;44.816;20.484;2023-11-22T09:50:34;34.25;;;15.90;;
82806;SDS011;72563;44.816;20.484;2023-11-22T09:53:11;34.65;;;15.45;;
82806;SDS011;72563;44.816;20.484;2023-11-22T09:55:47;34.10;;;15.65;;
82806;SDS011;72563;44.816;20.484;2023-11-22T09:58:12;31.38;;;16.25;;
82806;SDS011;72563;44.816;20.484;2023-11-22T10:00:47;31.20;;;15.45;;
82806;SDS011;72563;44.816;20.484;2023-11-22T10:03:13;30.08;;;13.93;;
82806;SDS011;72563;44.816;20.484;2023-11-22T10:05:42;32.40;;;14.75;;
82806;SDS011;72563;44.816;20.484;2023-11-22T10:08:08;32.78;;;15.52;;
82806;SDS011;72563;44.816;20.484;2023-11-22T10:10:34;43.95;;;21.15;;
82806;SDS011;72563;44.816;20.484;2023-11-22T10:13:02;51.80;;;23.73;;
82806;SDS011;72563;44.816;20.484;2023-11-22T10:15:28;42.88;;;19.73;;
82806;SDS011;72563;44.816;20.484;2023-11-22T10:17:55;36.40;;;17.23;;
82806;SDS011;72563;44.816;20.484;2023-11-22T10:20:24;31.67;;;15.85;;
82806;SDS011;72563;44.816;20.484;2023-11-22T10:22:51;30.77;;;16.30;;
82806;SDS011;72563;44.816;20.484;2023-11-22T10:25:17;29.95;;;16.17;;
82806;SDS011;72563;44.816;20.484;2023-11-22T10:27:44;33.92;;;15.93;;
82806;SDS011;72563;44.816;20.484;2023-11-22T10:30:11;32.95;;;16.00;;
82806;SDS011;72563;44.816;20.484;2023-11-22T10:32:38;35.40;;;16.63;;
82806;SDS011;72563;44.816;20.484;2023-11-22T10:35:05;31.33;;;16.05;;
82806;SDS011;72563;44.816;20.484;2023-11-22T10:37:32;35.35;;;17.10;;
82806;SDS011;72563;44.816;20.484;2023-11-22T10:39:59;34.58;;;16.23;;
82806;SDS011;72563;44.816;20.484;2023-11-22T10:42:25;33.50;;;15.88;;
82806;SDS011;72563;44.816;20.484;2023-11-22T10:44:56;35.40;;;16.23;;
82806;SDS011;72563;44.816;20.484;2023-11-22T10:47:23;33.65;;;15.57;;
82806;SDS011;72563;44.816;20.484;2023-11-22T10:49:51;36.85;;;16.77;;
82806;SDS011;72563;44.816;20.484;2023-11-22T10:52:17;38.75;;;16.38;;
82806;SDS011;72563;44.816;20.484;2023-11-22T10:54:50;32.92;;;17.05;;
82806;SDS011;72563;44.816;20.484;2023-11-22T10:57:24;34.70;;;16.40;;
82806;SDS011;72563;44.816;20.484;2023-11-22T11:02:19;33.45;;;15.65;;
82806;SDS011;72563;44.816;20.484;2023-11-22T11:04:55;35.13;;;16.42;;
82806;SDS011;72563;44.816;20.484;2023-11-22T11:07:32;38.53;;;17.08;;
82806;SDS011;72563;44.816;20.484;2023-11-22T11:10:02;34.47;;;16.25;;
82806;SDS011;72563;44.816;20.484;2023-11-22T11:12:28;34.92;;;16.30;;
82806;SDS011;72563;44.816;20.484;2023-11-22T11:14:54;34.75;;;17.10;;
82806;SDS011;72563;44.816;20.484;2023-11-22T11:17:20;29.58;;;14.65;;
82806;SDS011;72563;44.816;20.484;2023-11-22T11:19:47;32.50;;;15.45;;
82806;SDS011;72563;44.816;20.484;2023-11-22T11:22:15;31.95;;;16.08;;
82806;SDS011;72563;44.816;20.484;2023-11-22T11:24:41;35.63;;;16.10;;
82806;SDS011;72563;44.816;20.484;2023-11-22T11:27:09;34.65;;;17.42;;
82806;SDS011;72563;44.816;20.484;2023-11-22T11:29:36;34.70;;;16.65;;
82806;SDS011;72563;44.816;20.484;2023-11-22T11:32:09;34.03;;;16.08;;
82806;SDS011;72563;44.816;20.484;2023-11-22T11:34:48;37.15;;;17.58;;
82806;SDS011;72563;44.816;20.484;2023-11-22T11:37:19;36.90;;;17.23;;
82806;SDS011;72563;44.816;20.484;2023-11-22T11:39:46;36.00;;;17.25;;
82806;SDS011;72563;44.816;20.484;2023-11-22T11:42:12;33.92;;;16.00;;
82806;SDS011;72563;44.816;20.484;2023-11-22T11:44:50;35.63;;;17.15;;
82806;SDS011;72563;44.816;20.484;2023-11-22T11:47:21;33.80;;;16.00;;
82806;SDS011;72563;44.816;20.484;2023-11-22T11:49:49;35.45;;;17.25;;
82806;SDS011;72563;44.816;20.484;2023-11-22T11:52:17;28.95;;;14.93;;
82806;SDS011;72563;44.816;20.484;2023-11-22T11:54:43;30.08;;;14.93;;
82806;SDS011;72563;44.816;20.484;2023-11-22T11:57:09;31.67;;;16.23;;
82806;SDS011;72563;44.816;20.484;2023-11-22T11:59:35;36.55;;;17.00;;
82806;SDS011;72563;44.816;20.484;2023-11-22T12:02:01;34.97;;;17.95;;
82806;SDS011;72563;44.816;20.484;2023-11-22T12:04:27;34.22;;;17.33;;
82806;SDS011;72563;44.816;20.484;2023-11-22T12:06:54;34.10;;;16.60;;
82806;SDS011;72563;44.816;20.484;2023-11-22T12:09:24;36.08;;;16.52;;
82806;SDS011;72563;44.816;20.484;2023-11-22T12:11:50;33.08;;;16.42;;
82806;SDS011;72563;44.816;20.484;2023-11-22T12:14:18;35.03;;;18.85;;
82806;SDS011;72563;44.816;20.484;2023-11-22T12:16:45;37.88;;;18.88;;
82806;SDS011;72563;44.816;20.484;2023-11-22T12:19:27;34.22;;;16.38;;
82806;SDS011;72563;44.816;20.484;2023-11-22T12:21:56;31.73;;;16.00;;
82806;SDS011;72563;44.816;20.484;2023-11-22T12:24:21;33.28;;;16.20;;
82806;SDS011;72563;44.816;20.484;2023-11-22T12:26:49;30.42;;;14.48;;
82806;SDS011;72563;44.816;20.484;2023-11-22T12:29:15;30.70;;;15.55;;
82806;SDS011;72563;44.816;20.484;2023-11-22T12:31:48;32.95;;;17.00;;
82806;SDS011;72563;44.816;20.484;2023-11-22T12:34:22;30.42;;;15.93;;
82806;SDS011;72563;44.816;20.484;2023-11-22T12:36:47;31.65;;;15.10;;
82806;SDS011;72563;44.816;20.484;2023-11-22T12:39:14;30.25;;;15.40;;
82806;SDS011;72563;44.816;20.484;2023-11-22T12:41:49;29.33;;;14.98;;
82806;SDS011;72563;44.816;20.484;2023-11-22T12:44:16;30.45;;;16.60;;
82806;SDS011;72563;44.816;20.484;2023-11-22T12:46:49;30.52;;;16.13;;
82806;SDS011;72563;44.816;20.484;2023-11-22T12:49:28;32.55;;;15.77;;
82806;SDS011;72563;44.816;20.484;2023-11-22T12:52:13;31.25;;;15.60;;
82806;SDS011;72563;44.816;20.484;2023-11-22T12:54:39;33.22;;;16.35;;
82806;SDS011;72563;44.816;20.484;2023-11-22T12:57:09;38.38;;;19.33;;
82806;SDS011;72563;44.816;20.484;2023-11-22T12:59:39;36.13;;;18.00;;
82806;SDS011;72563;44.816;20.484;2023-11-22T13:02:06;38.38;;;18.45;;
82806;SDS011;72563;44.816;20.484;2023-11-22T13:04:32;82.75;;;30.98;;
82806;SDS011;72563;44.816;20.484;2023-11-22T13:06:58;107.35;;;40.13;;
82806;SDS011;72563;44.816;20.484;2023-11-22T13:09:25;125.15;;;47.67;;
82806;SDS011;72563;44.816;20.484;2023-11-22T13:11:51;69.10;;;27.73;;
82806;SDS011;72563;44.816;20.484;2023-11-22T13:14:17;36.60;;;16.92;;
82806;SDS011;72563;44.816;20.484;2023-11-22T13:16:43;33.40;;;16.27;;
82806;SDS011;72563;44.816;20.484;2023-11-22T13:19:10;32.38;;;15.52;;
82806;SDS011;72563;44.816;20.484;2023-11-22T13:21:36;31.92;;;15.98;;
82806;SDS011;72563;44.816;20.484;2023-11-22T13:24:02;32.05;;;16.27;;
82806;SDS011;72563;44.816;20.484;2023-11-22T13:26:28;32.78;;;15.95;;
82806;SDS011;72563;44.816;20.484;2023-11-22T13:28:54;29.77;;;15.68;;
82806;SDS011;72563;44.816;20.484;2023-11-22T13:31:24;31.40;;;15.60;;
82806;SDS011;72563;44.816;20.484;2023-11-22T13:33:49;32.00;;;16.25;;
82806;SDS011;72563;44.816;20.484;2023-11-22T13:36:15;31.85;;;16.50;;
82806;SDS011;72563;44.816;20.484;2023-11-22T13:38:41;29.75;;;16.00;;
82806;SDS011;72563;44.816;20.484;2023-11-22T13:41:06;29.83;;;15.85;;
82806;SDS011;72563;44.816;20.484;2023-11-22T13:43:32;29.38;;;15.20;;
82806;SDS011;72563;44.816;20.484;2023-11-22T13:48:26;29.35;;;14.82;;
82806;SDS011;72563;44.816;20.484;2023-11-22T13:50:53;32.53;;;17.67;;
82806;SDS011;72563;44.816;20.484;2023-11-22T13:53:20;30.45;;;15.68;;
82806;SDS011;72563;44.816;20.484;2023-11-22T13:55:47;28.50;;;15.18;;
82806;SDS011;72563;44.816;20.484;2023-11-22T13:58:15;31.30;;;16.33;;
82806;SDS011;72563;44.816;20.484;2023-11-22T14:00:41;30.38;;;15.45;;
82806;SDS011;72563;44.816;20.484;2023-11-22T14:03:07;32.75;;;17.25;;
82806;SDS011;72563;44.816;20.484;2023-11-22T14:05:33;32.13;;;16.00;;
82806;SDS011;72563;44.816;20.484;2023-11-22T14:08:01;30.08;;;16.48;;
82806;SDS011;72563;44.816;20.484;2023-11-22T14:10:27;29.35;;;16.38;;
82806;SDS011;72563;44.816;20.484;2023-11-22T14:12:53;31.17;;;16.50;;
82806;SDS011;72563;44.816;20.484;2023-11-22T14:15:26;31.20;;;17.23;;
82806;SDS011;72563;44.816;20.484;2023-11-22T14:17:56;32.70;;;18.02;;
82806;SDS011;72563;44.816;20.484;2023-11-22T14:20:22;30.55;;;16.38;;
82806;SDS011;72563;44.816;20.484;2023-11-22T14:22:49;31.48;;;16.50;;
82806;SDS011;72563;44.816;20.484;2023-11-22T14:25:14;33.13;;;17.92;;